This is the latest recevied weather packets stored in our database for station/object KD8DLP-13. If no packets are shown the sender has not sent any weather packets the latest 10 day(s).
| Time | Temp. | Humidity | Pressure | Rain* | Wind** | Luminosity | Snow |
|---|---|---|---|---|---|---|---|
| 1777835845 | 12.22° C | 65% | 1011.4 hPa | 0 mm | - | 69 W/m² | - |
| 1777835542 | 12.78° C | 62% | 1011.5 hPa | 0 mm | - | 78 W/m² | - |
| 1777835239 | 13.33° C | 61% | 1011.4 hPa | 0 mm | - | 123 W/m² | - |
| 1777834936 | 13.89° C | 59% | 1011.7 hPa | 0 mm | - | 282 W/m² | - |
| 1777834634 | 13.33° C | 60% | 1011.8 hPa | 0 mm | - | 303 W/m² | - |
| 1777834329 | 13.89° C | 60% | 1011.7 hPa | 0 mm | - | 273 W/m² | - |
| 1777834023 | 13.89° C | 59% | 1011.5 hPa | 0 mm | - | 302 W/m² | - |
| 1777833720 | 14.44° C | 57% | 1011.6 hPa | 0 mm | - | 292 W/m² | - |
| 1777833416 | 15° C | 55% | 1011.6 hPa | 0 mm | - | 329 W/m² | - |
| 1777833114 | 15.56° C | 54% | 1011.4 hPa | 0 mm | - | 500 W/m² | - |
| 1777832812 | 15.56° C | 52% | 1011.4 hPa | 0 mm | - | 722 W/m² | - |
| 1777832510 | 15.56° C | 53% | 1011.4 hPa | 0 mm | - | 729 W/m² | - |
| 1777832206 | 15.56° C | 53% | 1011.6 hPa | 0 mm | - | 733 W/m² | - |
| 1777831903 | 15.56° C | 52% | 1011.6 hPa | 0 mm | - | 732 W/m² | - |
| 1777831600 | 15° C | 53% | 1011.6 hPa | 0 mm | - | 739 W/m² | - |
| 1777831298 | 15° C | 52% | 1011.6 hPa | 0 mm | - | 742 W/m² | - |
| 1777830995 | 15° C | 53% | 1011.7 hPa | 0 mm | - | 743 W/m² | - |
| 1777830692 | 15° C | 52% | 1011.8 hPa | 0 mm | - | 747 W/m² | - |
| 1777830389 | 15° C | 52% | 1011.6 hPa | 0 mm | - | 747 W/m² | - |
| 1777830086 | 14.44° C | 53% | 1011.8 hPa | 0 mm | - | 749 W/m² | - |
| 1777829781 | 15° C | 52% | 1011.9 hPa | 0 mm | - | 750 W/m² | - |
| 1777829478 | 15° C | 53% | 1011.9 hPa | 0 mm | - | 748 W/m² | - |
| 1777829175 | 15° C | 53% | 1012.1 hPa | 0 mm | - | 754 W/m² | - |
| 1777828872 | 15° C | 53% | 1011.8 hPa | 0 mm | - | 748 W/m² | - |
| 1777828569 | 15° C | 55% | 1011.8 hPa | 0 mm | - | 739 W/m² | - |
* Rain latest hour (hover to see other rain measurements)
** Current wind speed in m/s (hover to see current wind gust speed)